Time;durP1;ratioP1;P1;durP2;ratioP2;P2;SDS_P1;SDS_P2;PMS_P1;PMS_P2;Temp;Humidity;BMP_temperature;BMP_pressure;BME280_temperature;BME280_humidity;BME280_pressure;Samples;Min_cycle;Max_cycle;Signal;HPM_P1;HPM_P2
2021/03/26 00:04:15;;;;;;;8.90;6.80;;;11.30;28.80;;;;;;10412833;28;20248;-75
2021/03/26 00:09:19;;;;;;;7.77;6.93;;;11.20;28.40;;;;;;10408519;28;20740;-75
2021/03/26 00:14:23;;;;;;;7.87;7.07;;;11.20;28.60;;;;;;10411864;28;20240;-75
2021/03/26 00:19:25;;;;;;;7.23;6.50;;;11.10;28.50;;;;;;10410860;28;20234;-74
2021/03/26 00:24:27;;;;;;;6.50;5.80;;;10.90;28.20;;;;;;10403991;28;20238;-75
2021/03/26 00:29:30;;;;;;;7.77;6.90;;;10.70;28.50;;;;;;10410853;28;20244;-75
2021/03/26 00:34:33;;;;;;;9.87;6.80;;;10.60;28.70;;;;;;10410374;28;20604;-74
2021/03/26 00:39:35;;;;;;;6.97;6.13;;;10.50;28.70;;;;;;10415138;28;20236;-75
2021/03/26 00:44:38;;;;;;;8.17;6.07;;;10.50;28.70;;;;;;10408540;28;20232;-75
2021/03/26 00:49:40;;;;;;;6.07;5.17;;;10.40;28.60;;;;;;10409503;28;20232;-75
2021/03/26 00:54:42;;;;;;;7.53;6.40;;;10.40;28.60;;;;;;10411140;28;20316;-75
2021/03/26 00:59:45;;;;;;;7.90;6.90;;;10.30;28.50;;;;;;10409472;28;20229;-75
2021/03/26 01:04:47;;;;;;;6.90;6.20;;;10.30;28.50;;;;;;10407591;28;20231;-75
2021/03/26 01:09:51;;;;;;;8.30;6.07;;;10.20;28.50;;;;;;10411828;28;20236;-75
2021/03/26 01:14:54;;;;;;;7.13;6.23;;;10.20;28.50;;;;;;10406978;28;20227;-75
2021/03/26 01:19:57;;;;;;;7.57;6.67;;;10.10;28.60;;;;;;10412426;28;20717;-75
2021/03/26 01:25:00;;;;;;;6.37;5.73;;;10.10;28.40;;;;;;10409203;28;20233;-75
2021/03/26 01:30:07;;;;;;;7.40;5.97;;;10.00;28.60;;;;;;10404025;28;20229;-74
2021/03/26 01:35:11;;;;;;;6.37;5.73;;;10.00;29.20;;;;;;10408971;28;20626;-74
2021/03/26 01:40:17;;;;;;;7.77;6.80;;;10.00;28.80;;;;;;10408187;28;20232;-75
2021/03/26 01:45:26;;;;;;;7.27;6.30;;;9.80;29.70;;;;;;10406460;28;20325;-75
2021/03/26 01:50:30;;;;;;;9.13;6.33;;;9.70;29.90;;;;;;10408480;28;20857;-75
2021/03/26 01:55:36;;;;;;;7.13;5.80;;;9.50;30.00;;;;;;10406235;28;20667;-75
2021/03/26 02:00:42;;;;;;;6.43;5.73;;;9.50;30.00;;;;;;10405016;28;20773;-75
2021/03/26 02:05:47;;;;;;;9.63;6.63;;;9.40;30.10;;;;;;10403175;28;20595;-74
2021/03/26 02:10:50;;;;;;;7.80;6.30;;;9.50;29.90;;;;;;10406982;28;20335;-75
2021/03/26 02:15:53;;;;;;;6.70;6.00;;;9.40;29.90;;;;;;10407056;28;20229;-74
2021/03/26 02:20:57;;;;;;;6.67;5.97;;;9.40;30.00;;;;;;10405763;28;20673;-74
2021/03/26 02:26:00;;;;;;;8.43;6.30;;;9.30;30.10;;;;;;10405625;28;20732;-75
2021/03/26 02:31:03;;;;;;;6.80;5.80;;;9.20;30.20;;;;;;10368947;28;20328;-72
2021/03/26 02:36:39;;;;;;;7.53;6.07;;;9.10;30.30;;;;;;10365394;28;20305;-71
2021/03/26 02:41:47;;;;;;;8.43;6.53;;;9.00;31.10;;;;;;10356467;28;20250;-71
2021/03/26 02:46:56;;;;;;;8.00;6.43;;;8.90;30.80;;;;;;10403761;28;20235;-72
2021/03/26 02:52:03;;;;;;;7.40;6.47;;;8.90;31.30;;;;;;10399286;28;20234;-71
2021/03/26 02:57:09;;;;;;;6.50;5.40;;;8.90;31.20;;;;;;10368696;28;20234;-72
2021/03/26 03:02:14;;;;;;;6.37;5.77;;;8.90;31.10;;;;;;10366215;28;20602;-72
2021/03/26 03:07:22;;;;;;;9.83;5.53;;;9.00;30.90;;;;;;10369890;28;20238;-71
2021/03/26 03:12:29;;;;;;;6.30;5.30;;;9.00;31.20;;;;;;10364068;28;20309;-71
2021/03/26 03:17:40;;;;;;;8.10;5.97;;;9.10;31.20;;;;;;10370860;28;20234;-72
2021/03/26 03:22:45;;;;;;;7.83;6.17;;;9.10;31.60;;;;;;10370161;28;20222;-72
2021/03/26 03:28:00;;;;;;;5.20;4.70;;;9.10;31.00;;;;;;10370887;28;20714;-72
2021/03/26 03:33:07;;;;;;;7.23;6.10;;;9.10;31.30;;;;;;10386908;28;20749;-71
2021/03/26 03:38:23;;;;;;;7.47;5.70;;;9.00;31.20;;;;;;10375960;28;20237;-72
2021/03/26 03:43:34;;;;;;;6.83;5.73;;;9.00;31.60;;;;;;10381304;28;20495;-72
2021/03/26 03:48:44;;;;;;;8.67;5.80;;;8.90;31.70;;;;;;10411237;28;20237;-71
2021/03/26 03:53:52;;;;;;;8.97;6.30;;;8.90;31.70;;;;;;10397830;28;20309;-72
2021/03/26 03:59:01;;;;;;;7.27;5.97;;;8.90;31.70;;;;;;10421220;28;20248;-72
2021/03/26 04:04:10;;;;;;;6.73;6.03;;;8.90;31.90;;;;;;10405462;28;20314;-72
2021/03/26 04:09:16;;;;;;;6.77;6.07;;;8.90;31.70;;;;;;10414596;28;20253;-72
2021/03/26 04:14:25;;;;;;;6.50;5.60;;;8.90;31.60;;;;;;10420067;28;20300;-71
2021/03/26 04:19:32;;;;;;;7.90;5.73;;;8.90;32.00;;;;;;10421993;28;20312;-72
2021/03/26 04:24:39;;;;;;;5.93;5.33;;;8.90;31.90;;;;;;10404465;28;20308;-71
2021/03/26 04:29:53;;;;;;;6.80;6.00;;;8.90;31.60;;;;;;10421717;28;20291;-72
2021/03/26 04:34:56;;;;;;;6.97;6.27;;;8.90;31.90;;;;;;10395893;28;20693;-72
2021/03/26 04:40:05;;;;;;;7.93;6.33;;;8.80;31.30;;;;;;10405660;28;20250;-72
2021/03/26 04:45:18;;;;;;;6.33;5.40;;;8.80;31.90;;;;;;10378877;28;20222;-72
2021/03/26 04:50:25;;;;;;;6.90;5.00;;;8.80;32.50;;;;;;10410417;28;20226;-72
2021/03/26 04:55:31;;;;;;;6.80;5.83;;;8.80;32.20;;;;;;10396513;28;20239;-72
2021/03/26 05:00:39;;;;;;;6.83;5.63;;;8.80;32.70;;;;;;10409490;28;20221;-72
2021/03/26 05:05:46;;;;;;;6.73;5.50;;;8.70;32.30;;;;;;10376636;28;20293;-72
2021/03/26 05:10:49;;;;;;;6.03;5.43;;;8.70;32.00;;;;;;10408215;28;20261;-71
2021/03/26 05:15:57;;;;;;;6.90;6.17;;;8.70;32.00;;;;;;10390988;28;20708;-72
2021/03/26 05:21:04;;;;;;;7.93;6.33;;;8.70;32.70;;;;;;10408296;28;20238;-72
2021/03/26 05:26:07;;;;;;;7.30;6.20;;;8.70;32.40;;;;;;10383511;28;20222;-72
2021/03/26 05:31:26;;;;;;;7.67;6.20;;;8.70;32.10;;;;;;10404984;28;20213;-72
2021/03/26 05:36:35;;;;;;;8.03;6.00;;;8.70;33.10;;;;;;10405628;28;20598;-72
2021/03/26 05:42:12;;;;;;;5.87;5.27;;;8.70;33.10;;;;;;10402154;28;20731;-72
2021/03/26 05:47:42;;;;;;;9.30;6.70;;;8.70;33.70;;;;;;10396663;28;20255;-71
2021/03/26 05:52:54;;;;;;;15.03;10.67;;;8.80;33.90;;;;;;10416937;28;20217;-71
2021/03/26 05:58:12;;;;;;;25.70;18.13;;;8.80;33.50;;;;;;10409491;28;20257;-71
2021/03/26 06:03:36;;;;;;;60.83;34.87;;;8.90;33.90;;;;;;10415051;28;20315;-71
2021/03/26 06:08:57;;;;;;;15.87;11.30;;;8.80;33.90;;;;;;10416916;28;20266;-71
2021/03/26 06:14:26;;;;;;;15.20;10.97;;;8.90;33.90;;;;;;10420409;28;20212;-71
2021/03/26 06:19:55;;;;;;;14.10;10.90;;;8.90;34.10;;;;;;10401603;28;20594;-71
2021/03/26 06:25:35;;;;;;;9.07;8.00;;;9.00;34.40;;;;;;10391132;28;20233;-71
2021/03/26 06:30:53;;;;;;;11.30;7.67;;;9.00;34.50;;;;;;10397838;28;20254;-71
2021/03/26 06:36:43;;;;;;;14.27;8.57;;;9.00;34.30;;;;;;10385756;28;20321;-71
2021/03/26 06:42:10;;;;;;;8.50;7.13;;;9.10;35.00;;;;;;10368742;28;20229;-71
2021/03/26 06:47:17;;;;;;;8.03;7.13;;;9.10;35.00;;;;;;10396984;28;20235;-71
2021/03/26 06:52:38;;;;;;;11.23;7.60;;;9.20;34.50;;;;;;10418985;28;20797;-71
2021/03/26 06:58:13;;;;;;;11.40;8.33;;;9.30;35.30;;;;;;10411367;28;20229;-71
2021/03/26 07:03:53;;;;;;;11.30;8.13;;;9.50;36.00;;;;;;10401494;28;20241;-71
2021/03/26 07:09:14;;;;;;;11.00;7.80;;;9.60;35.90;;;;;;10402084;28;20317;-71
2021/03/26 07:14:55;;;;;;;10.07;8.83;;;9.80;36.20;;;;;;10394469;28;20717;-71
2021/03/26 07:20:32;;;;;;;13.07;9.27;;;10.00;35.20;;;;;;10434571;28;20258;-71
2021/03/26 07:25:45;;;;;;;14.67;9.37;;;10.10;35.20;;;;;;10376988;28;20230;-71
2021/03/26 07:30:58;;;;;;;12.37;8.97;;;10.40;35.20;;;;;;10401870;28;20240;-71
2021/03/26 07:36:16;;;;;;;13.17;9.43;;;10.60;35.60;;;;;;10404319;28;20226;-71
2021/03/26 07:41:51;;;;;;;11.93;9.67;;;10.80;35.30;;;;;;10416582;28;20605;-71
2021/03/26 07:47:24;;;;;;;12.27;10.17;;;11.10;35.10;;;;;;10411283;28;20604;-71
2021/03/26 07:52:33;;;;;;;12.97;9.67;;;11.30;35.00;;;;;;10391692;28;20250;-71
2021/03/26 07:57:56;;;;;;;12.33;9.63;;;11.60;34.40;;;;;;10391853;28;20255;-71
2021/03/26 08:03:26;;;;;;;11.90;10.47;;;11.80;34.50;;;;;;10410996;28;20254;-71
2021/03/26 08:08:46;;;;;;;11.77;9.40;;;12.00;34.80;;;;;;10405104;28;20284;-71
2021/03/26 08:14:20;;;;;;;12.70;10.63;;;12.20;34.40;;;;;;10416349;28;20225;-71
2021/03/26 08:19:36;;;;;;;11.67;10.07;;;12.50;34.70;;;;;;10403029;28;20230;-71
2021/03/26 08:25:15;;;;;;;12.57;10.00;;;12.80;34.60;;;;;;10372241;28;20232;-71
2021/03/26 08:30:56;;;;;;;11.87;9.67;;;13.10;34.30;;;;;;10388714;28;20325;-71
2021/03/26 08:36:32;;;;;;;10.67;8.60;;;13.40;34.10;;;;;;10360556;28;20231;-71
2021/03/26 08:41:39;;;;;;;9.63;8.20;;;13.70;33.00;;;;;;10365946;28;20248;-71
2021/03/26 08:46:45;;;;;;;9.30;8.07;;;14.00;32.90;;;;;;10381740;28;20226;-70
2021/03/26 08:52:12;;;;;;;9.70;8.70;;;14.30;32.60;;;;;;10379221;28;20751;-70
2021/03/26 08:57:26;;;;;;;9.70;7.90;;;14.60;32.80;;;;;;10390375;28;20693;-70
2021/03/26 09:03:06;;;;;;;11.70;8.03;;;14.90;32.00;;;;;;10382379;28;20243;-71
2021/03/26 09:08:40;;;;;;;9.40;7.30;;;15.20;32.30;;;;;;10384612;28;20236;-70
2021/03/26 09:13:56;;;;;;;8.47;7.57;;;15.50;31.70;;;;;;10406124;28;20221;-71
2021/03/26 09:19:07;;;;;;;8.67;7.50;;;15.80;31.70;;;;;;10376371;28;20752;-71
2021/03/26 09:24:26;;;;;;;12.00;8.63;;;16.00;31.40;;;;;;10366824;28;20234;-71
2021/03/26 09:29:36;;;;;;;9.90;8.20;;;16.20;31.10;;;;;;10368278;28;20230;-71
2021/03/26 09:34:44;;;;;;;9.60;8.53;;;16.40;30.60;;;;;;10365049;28;20309;-71
2021/03/26 09:39:49;;;;;;;9.60;8.57;;;16.60;30.60;;;;;;10374048;28;20235;-70
2021/03/26 09:45:03;;;;;;;8.93;8.03;;;16.80;30.60;;;;;;10366325;28;20272;-71
2021/03/26 09:50:28;;;;;;;14.00;9.30;;;17.00;30.60;;;;;;10365367;28;20222;-71
2021/03/26 09:55:36;;;;;;;12.13;9.30;;;17.20;29.90;;;;;;10365952;28;20694;-71
2021/03/26 10:00:49;;;;;;;13.47;10.03;;;17.50;29.90;;;;;;10363910;28;20294;-71
2021/03/26 10:05:57;;;;;;;12.43;9.60;;;17.70;29.60;;;;;;10364660;28;20218;-71
2021/03/26 10:11:05;;;;;;;14.23;10.50;;;17.80;29.30;;;;;;10366977;28;20313;-71
2021/03/26 10:16:11;;;;;;;13.00;11.33;;;18.10;28.80;;;;;;10412579;28;20593;-71
2021/03/26 10:21:18;;;;;;;12.73;9.57;;;18.20;28.90;;;;;;10414757;28;20228;-71
2021/03/26 10:26:27;;;;;;;12.53;9.80;;;18.30;29.10;;;;;;10408864;28;20242;-71
2021/03/26 10:31:35;;;;;;;12.93;10.07;;;18.40;28.70;;;;;;10406401;28;20240;-71
2021/03/26 10:36:54;;;;;;;13.17;10.20;;;18.60;28.40;;;;;;10402243;28;20225;-71
2021/03/26 10:42:06;;;;;;;11.50;9.50;;;18.80;28.60;;;;;;10366370;28;20279;-71
2021/03/26 10:47:18;;;;;;;13.53;10.77;;;19.00;28.40;;;;;;10364899;28;20233;-71
2021/03/26 10:52:25;;;;;;;13.50;10.57;;;19.30;27.80;;;;;;10365269;28;20233;-70
2021/03/26 10:57:35;;;;;;;14.17;10.73;;;19.40;28.10;;;;;;10360149;28;20226;-71
2021/03/26 11:02:59;;;;;;;13.63;10.83;;;19.50;28.10;;;;;;10362178;28;20710;-71
2021/03/26 11:08:37;;;;;;;12.30;10.50;;;19.60;27.80;;;;;;10376228;28;20704;-71
2021/03/26 11:14:07;;;;;;;13.63;11.10;;;19.60;27.30;;;;;;10363876;28;20609;-71
2021/03/26 11:19:19;;;;;;;14.40;10.13;;;19.70;26.70;;;;;;10360676;28;20679;-71
2021/03/26 11:24:23;;;;;;;13.90;11.13;;;19.70;26.60;;;;;;10363593;28;20241;-71
2021/03/26 11:29:31;;;;;;;16.43;11.33;;;19.80;26.90;;;;;;10363299;28;20231;-71
2021/03/26 11:34:41;;;;;;;13.03;10.57;;;19.70;26.20;;;;;;10366066;28;20233;-71
2021/03/26 11:39:54;;;;;;;11.43;9.40;;;19.80;25.70;;;;;;10369522;28;20223;-71
2021/03/26 11:45:02;;;;;;;11.87;9.73;;;19.80;25.70;;;;;;10373749;28;20753;-71
2021/03/26 11:50:19;;;;;;;12.33;9.93;;;19.90;26.20;;;;;;10368940;28;20245;-71
2021/03/26 11:55:29;;;;;;;12.10;9.20;;;19.90;25.70;;;;;;10371691;28;21291;-71
2021/03/26 12:00:33;;;;;;;10.67;9.33;;;19.90;26.00;;;;;;10371037;28;20222;-71
2021/03/26 12:06:04;;;;;;;12.40;9.20;;;20.00;26.50;;;;;;10365549;28;20231;-71
2021/03/26 12:11:14;;;;;;;12.17;9.13;;;20.10;25.40;;;;;;10412533;28;20256;-71
2021/03/26 12:16:19;;;;;;;11.80;9.53;;;20.10;25.40;;;;;;10390479;28;20230;-71
2021/03/26 12:21:40;;;;;;;11.60;9.33;;;20.10;25.40;;;;;;10372123;28;20231;-71
2021/03/26 12:26:52;;;;;;;9.57;8.20;;;20.00;25.30;;;;;;10366107;28;20265;-71
2021/03/26 12:32:02;;;;;;;11.67;8.50;;;20.10;25.40;;;;;;10368925;28;20608;-71
2021/03/26 12:37:08;;;;;;;10.30;8.13;;;20.10;25.40;;;;;;10393887;28;20300;-71
2021/03/26 12:42:13;;;;;;;12.47;8.90;;;20.10;25.00;;;;;;10371649;28;20263;-71
2021/03/26 12:47:29;;;;;;;10.53;8.90;;;20.20;25.40;;;;;;10369668;28;20234;-71
2021/03/26 12:52:45;;;;;;;10.83;8.87;;;20.20;24.90;;;;;;10371659;28;20713;-71
2021/03/26 12:57:58;;;;;;;9.13;7.87;;;20.20;24.20;;;;;;10367509;28;20234;-71
2021/03/26 13:03:09;;;;;;;8.70;7.50;;;20.20;24.70;;;;;;10368504;28;20729;-71
2021/03/26 13:08:19;;;;;;;9.10;7.73;;;20.20;24.60;;;;;;10360842;28;20232;-71
2021/03/26 13:13:40;;;;;;;8.93;8.03;;;20.30;24.40;;;;;;10366198;28;20226;-71
2021/03/26 13:18:54;;;;;;;8.00;6.73;;;20.30;24.40;;;;;;10370097;28;20756;-71
2021/03/26 13:24:06;;;;;;;7.17;6.43;;;20.30;24.10;;;;;;10369520;28;20233;-71
2021/03/26 13:29:20;;;;;;;9.43;7.60;;;20.40;23.60;;;;;;10364358;28;20230;-71
2021/03/26 13:34:26;;;;;;;7.57;6.03;;;20.40;23.90;;;;;;10371358;28;20248;-71
2021/03/26 13:39:41;;;;;;;8.30;7.10;;;20.40;24.00;;;;;;10370349;28;20233;-71
2021/03/26 13:44:52;;;;;;;6.10;4.80;;;20.40;23.90;;;;;;10365283;28;20249;-71
2021/03/26 13:50:07;;;;;;;8.83;5.70;;;20.50;23.30;;;;;;10371330;28;20705;-71
2021/03/26 13:55:24;;;;;;;5.80;5.20;;;20.50;22.90;;;;;;10363480;28;20610;-71
2021/03/26 14:00:29;;;;;;;5.13;4.63;;;20.60;23.00;;;;;;10364909;28;20317;-71
2021/03/26 14:05:41;;;;;;;4.70;4.23;;;20.70;22.80;;;;;;10364506;28;20619;-71
2021/03/26 14:11:00;;;;;;;7.27;5.60;;;20.70;22.80;;;;;;10364260;28;20230;-71
2021/03/26 14:16:10;;;;;;;6.57;5.47;;;20.70;21.70;;;;;;10376027;28;20233;-71
2021/03/26 14:21:32;;;;;;;5.13;4.70;;;20.70;22.10;;;;;;10363378;28;20319;-71
2021/03/26 14:26:47;;;;;;;7.03;5.40;;;20.70;21.80;;;;;;10365459;28;20442;-71
2021/03/26 14:31:55;;;;;;;8.30;6.20;;;20.70;22.20;;;;;;10364488;28;20296;-72
2021/03/26 14:37:03;;;;;;;6.53;5.70;;;20.70;22.00;;;;;;10368079;28;20241;-72
2021/03/26 14:42:19;;;;;;;6.57;5.77;;;20.70;21.70;;;;;;10365089;28;20218;-72
2021/03/26 14:47:27;;;;;;;6.53;5.53;;;20.70;22.00;;;;;;10402427;28;20689;-73
2021/03/26 14:52:45;;;;;;;5.27;4.77;;;20.70;21.40;;;;;;10389174;28;20647;-73
2021/03/26 14:57:59;;;;;;;5.30;4.53;;;20.80;21.10;;;;;;10390806;28;20221;-72
2021/03/26 15:03:19;;;;;;;7.30;4.67;;;20.70;21.10;;;;;;10386046;28;20226;-70
2021/03/26 15:08:35;;;;;;;6.33;4.73;;;20.70;20.90;;;;;;10384686;28;20237;-70
2021/03/26 15:13:43;;;;;;;6.27;4.70;;;20.70;20.90;;;;;;10369093;28;20314;-71
2021/03/26 15:19:08;;;;;;;6.40;5.80;;;20.70;20.70;;;;;;10395289;28;20224;-70
2021/03/26 15:24:46;;;;;;;5.70;5.03;;;20.70;20.20;;;;;;10373634;28;20613;-70
2021/03/26 15:29:54;;;;;;;7.40;4.90;;;20.70;20.90;;;;;;10368436;28;20241;-70
2021/03/26 15:35:03;;;;;;;4.63;4.07;;;20.70;20.70;;;;;;10367351;28;20590;-70
2021/03/26 15:40:11;;;;;;;5.33;3.60;;;20.70;20.20;;;;;;10375303;28;20598;-71
2021/03/26 15:45:20;;;;;;;4.07;3.70;;;20.60;20.30;;;;;;10360762;28;20325;-70
2021/03/26 15:50:26;;;;;;;4.63;3.60;;;20.60;19.80;;;;;;10364135;28;20238;-70
2021/03/26 15:55:45;;;;;;;4.17;3.17;;;20.70;20.30;;;;;;10367160;28;20600;-70
2021/03/26 16:01:21;;;;;;;3.50;3.20;;;20.70;20.00;;;;;;10362845;28;20232;-69
2021/03/26 16:06:37;;;;;;;6.20;4.07;;;20.70;19.80;;;;;;10363357;28;20230;-70
2021/03/26 16:12:00;;;;;;;6.77;4.93;;;20.70;19.40;;;;;;10364861;28;20768;-70
2021/03/26 16:17:49;;;;;;;5.93;4.80;;;20.60;19.10;;;;;;10370387;28;20241;-70
2021/03/26 16:23:08;;;;;;;6.03;3.90;;;20.60;20.10;;;;;;10334435;28;20258;-71
2021/03/26 16:28:36;;;;;;;5.00;4.03;;;20.60;19.60;;;;;;10385944;28;20304;-71
2021/03/26 16:33:59;;;;;;;4.87;3.23;;;20.50;19.20;;;;;;10407286;28;20218;-70
2021/03/26 16:39:27;;;;;;;5.03;3.40;;;20.50;19.10;;;;;;10374974;28;20321;-71
2021/03/26 16:45:01;;;;;;;4.47;3.00;;;20.50;19.40;;;;;;10365879;28;20226;-70
2021/03/26 16:50:15;;;;;;;3.60;3.30;;;20.40;19.60;;;;;;10361885;28;20234;-70
2021/03/26 16:55:23;;;;;;;4.97;3.47;;;20.40;19.40;;;;;;10361810;28;20222;-71
2021/03/26 17:01:01;;;;;;;7.53;3.93;;;20.30;19.50;;;;;;10368324;28;20595;-71
2021/03/26 17:06:48;;;;;;;3.83;3.10;;;20.30;19.90;;;;;;10413779;28;20280;-70
2021/03/26 17:12:11;;;;;;;4.10;3.57;;;20.20;20.10;;;;;;10392163;28;20805;-70
2021/03/26 17:17:52;;;;;;;5.90;4.57;;;20.10;19.20;;;;;;10364898;28;20226;-70
2021/03/26 17:23:32;;;;;;;6.90;5.80;;;20.00;19.70;;;;;;10364302;28;20232;-70
2021/03/26 17:28:58;;;;;;;6.77;4.87;;;19.90;20.10;;;;;;10361973;28;20301;-69
2021/03/26 17:34:08;;;;;;;4.93;4.53;;;19.80;20.20;;;;;;10346477;28;20706;-70
2021/03/26 17:39:25;;;;;;;4.00;3.60;;;19.80;20.10;;;;;;10361623;28;20576;-69
2021/03/26 17:44:59;;;;;;;6.23;5.63;;;19.60;20.30;;;;;;10365457;28;20225;-69
2021/03/26 17:50:22;;;;;;;9.77;4.70;;;19.60;21.10;;;;;;10366059;28;20234;-71
2021/03/26 17:56:06;;;;;;;6.77;3.80;;;19.50;20.40;;;;;;10366702;28;20258;-70
2021/03/26 18:01:18;;;;;;;8.30;4.50;;;19.40;20.70;;;;;;10363202;28;20667;-69
2021/03/26 18:06:52;;;;;;;6.90;5.87;;;19.20;20.70;;;;;;10361680;28;20230;-70
2021/03/26 18:12:10;;;;;;;8.17;5.23;;;19.10;20.70;;;;;;10361251;28;20326;-69
2021/03/26 18:17:28;;;;;;;10.90;8.60;;;18.90;21.10;;;;;;10362595;28;20730;-69
2021/03/26 18:22:44;;;;;;;26.03;19.03;;;18.80;21.10;;;;;;10365832;28;20309;-70
2021/03/26 18:28:31;;;;;;;14.00;11.57;;;18.60;21.20;;;;;;10362372;28;20237;-69
2021/03/26 18:34:31;;;;;;;9.93;8.90;;;18.40;21.20;;;;;;10360276;28;20224;-70
2021/03/26 18:39:41;;;;;;;16.57;11.80;;;18.30;21.40;;;;;;10267423;28;20270;-70
2021/03/26 18:45:18;;;;;;;11.47;10.20;;;18.10;21.40;;;;;;10356099;28;20252;-70
2021/03/26 18:50:45;;;;;;;10.50;9.40;;;17.90;21.40;;;;;;10372549;28;20407;-69
2021/03/26 18:55:58;;;;;;;10.40;8.73;;;17.70;21.30;;;;;;10373506;28;20333;-69
2021/03/26 19:01:32;;;;;;;7.80;7.00;;;17.40;21.80;;;;;;10369621;28;20249;-69
2021/03/26 19:06:41;;;;;;;8.33;7.53;;;17.20;22.00;;;;;;10347843;28;20641;-69
2021/03/26 19:11:54;;;;;;;14.20;11.57;;;17.00;22.00;;;;;;10369347;28;20590;-69
2021/03/26 19:17:02;;;;;;;12.30;10.77;;;16.80;22.20;;;;;;10369655;28;20581;-69
2021/03/26 19:22:12;;;;;;;9.50;8.07;;;16.50;22.30;;;;;;10370132;28;20268;-69
2021/03/26 19:27:34;;;;;;;9.60;7.87;;;16.30;22.50;;;;;;10370909;28;20243;-69
2021/03/26 19:32:43;;;;;;;8.97;7.50;;;16.20;22.70;;;;;;10367779;28;20222;-69
2021/03/26 19:37:53;;;;;;;7.37;6.07;;;16.10;22.70;;;;;;10367521;28;20218;-69
2021/03/26 19:43:03;;;;;;;8.43;5.50;;;16.00;22.60;;;;;;10370998;28;20226;-69
2021/03/26 19:48:17;;;;;;;8.97;6.93;;;15.90;22.50;;;;;;10409268;28;20719;-69
2021/03/26 19:53:33;;;;;;;6.90;6.30;;;15.80;22.80;;;;;;10389802;28;20231;-70
2021/03/26 19:58:48;;;;;;;6.83;6.07;;;15.70;23.10;;;;;;10409113;28;20255;-70
2021/03/26 20:04:04;;;;;;;6.70;6.00;;;15.70;23.20;;;;;;10409261;28;20222;-70
2021/03/26 20:09:30;;;;;;;8.80;6.87;;;15.60;23.30;;;;;;10400729;28;20229;-70
2021/03/26 20:14:44;;;;;;;8.63;7.03;;;15.50;23.30;;;;;;10395526;28;20576;-70
2021/03/26 20:20:01;;;;;;;9.87;6.60;;;15.30;23.40;;;;;;10416222;28;20228;-70
2021/03/26 20:25:32;;;;;;;9.70;8.20;;;15.20;23.50;;;;;;10383153;28;20336;-70
2021/03/26 20:30:42;;;;;;;11.67;9.23;;;15.10;23.60;;;;;;10403815;28;20243;-68
2021/03/26 20:36:00;;;;;;;9.30;7.97;;;15.00;23.50;;;;;;10404149;28;20648;-68
2021/03/26 20:41:13;;;;;;;8.30;7.20;;;14.90;23.70;;;;;;10368961;28;20261;-69
2021/03/26 20:46:23;;;;;;;8.43;6.93;;;14.70;23.80;;;;;;10367846;28;20321;-68
2021/03/26 20:51:56;;;;;;;10.10;7.83;;;14.60;23.90;;;;;;10364494;28;20231;-68
2021/03/26 20:57:05;;;;;;;7.70;6.70;;;14.50;24.00;;;;;;10366213;28;20288;-67
2021/03/26 21:02:17;;;;;;;10.00;7.93;;;14.50;24.00;;;;;;10424957;28;20215;-68
2021/03/26 21:07:23;;;;;;;10.50;8.63;;;14.50;24.40;;;;;;10419789;28;20233;-68
2021/03/26 21:12:32;;;;;;;8.57;7.07;;;14.40;24.10;;;;;;10405085;28;20225;-68
2021/03/26 21:17:54;;;;;;;8.33;6.70;;;14.30;24.10;;;;;;10405814;28;20233;-68
2021/03/26 21:23:00;;;;;;;10.40;7.97;;;14.30;24.50;;;;;;10404761;28;20221;-68
2021/03/26 21:28:44;;;;;;;8.37;7.57;;;14.20;24.30;;;;;;10412278;28;20224;-68
2021/03/26 21:34:33;;;;;;;9.53;7.90;;;14.10;24.60;;;;;;10394610;28;20312;-68
2021/03/26 21:39:40;;;;;;;8.50;7.47;;;14.10;24.60;;;;;;10404861;28;20233;-68
2021/03/26 21:44:53;;;;;;;7.57;6.53;;;14.00;24.40;;;;;;10415524;28;20225;-68
2021/03/26 21:50:03;;;;;;;7.20;6.50;;;13.90;24.50;;;;;;10406089;28;20234;-68
2021/03/26 21:55:18;;;;;;;8.43;6.60;;;13.90;24.60;;;;;;10375914;28;20222;-69
2021/03/26 22:00:31;;;;;;;7.00;6.33;;;13.80;24.90;;;;;;10363925;28;20613;-68
2021/03/26 22:05:38;;;;;;;6.73;6.13;;;13.70;24.90;;;;;;10366613;28;20863;-68
2021/03/26 22:10:46;;;;;;;6.83;6.23;;;13.60;24.60;;;;;;10363719;28;20233;-68
2021/03/26 22:15:51;;;;;;;8.10;6.73;;;13.50;24.90;;;;;;10365384;28;20310;-68
2021/03/26 22:21:27;;;;;;;7.80;6.67;;;13.40;24.90;;;;;;10362294;28;20772;-69
2021/03/26 22:26:33;;;;;;;6.87;6.17;;;13.30;25.10;;;;;;10351865;28;20309;-68
2021/03/26 22:31:42;;;;;;;8.43;6.90;;;13.20;25.00;;;;;;10366077;28;20229;-68
2021/03/26 22:36:51;;;;;;;8.60;6.77;;;13.10;25.30;;;;;;10361500;28;20320;-69
2021/03/26 22:41:56;;;;;;;7.17;6.33;;;12.90;25.40;;;;;;10365874;28;20234;-68
2021/03/26 22:47:14;;;;;;;10.07;7.20;;;12.80;25.40;;;;;;10367635;28;20313;-68
2021/03/26 22:52:33;;;;;;;7.90;7.10;;;12.60;26.10;;;;;;10361903;28;20230;-68
2021/03/26 22:57:37;;;;;;;9.33;7.40;;;12.40;26.30;;;;;;10354881;28;20301;-68
2021/03/26 23:02:43;;;;;;;9.50;7.40;;;12.30;25.90;;;;;;10359337;28;20233;-68
2021/03/26 23:07:47;;;;;;;8.07;7.20;;;12.30;26.20;;;;;;10361358;28;20754;-68
2021/03/26 23:12:52;;;;;;;8.80;7.27;;;12.30;26.40;;;;;;10360453;28;20230;-68
2021/03/26 23:18:02;;;;;;;7.90;7.13;;;12.20;26.30;;;;;;10365191;28;20223;-68
2021/03/26 23:23:10;;;;;;;7.70;6.90;;;12.20;26.70;;;;;;10362738;28;20221;-69
2021/03/26 23:28:17;;;;;;;8.33;6.90;;;12.20;26.70;;;;;;10363893;28;20222;-68
2021/03/26 23:33:25;;;;;;;7.40;6.70;;;12.20;26.60;;;;;;10367230;28;20222;-68
2021/03/26 23:38:38;;;;;;;8.30;7.33;;;12.30;26.90;;;;;;10371612;28;20234;-68
2021/03/26 23:43:44;;;;;;;7.50;6.70;;;12.30;27.20;;;;;;10368695;28;20509;-68
2021/03/26 23:48:50;;;;;;;8.03;7.23;;;12.40;27.10;;;;;;10371256;28;20606;-68
2021/03/26 23:53:59;;;;;;;8.77;7.53;;;12.40;26.60;;;;;;10366577;28;20226;-68
2021/03/26 23:59:04;;;;;;;7.63;6.70;;;12.30;26.80;;;;;;10404010;28;20739;-68
